LECO/LCG METAR and TAF weather

Enter ICAO airport designator
Station Type Date Time Source
LECO METAR 2018/12/19 03:00 UTC NOAA

LECO 190300Z AUTO 20006KT 160V230 CAVOK 10/07 Q1016


Station Type Date Time Source
LECO Decoded METAR 2018/12/19 03:00 UTC NOAA

La Coruna / Alvedro, Spain (LECO) 43-18N 008-23W 103M
Dec 18, 2018 - 10:00 PM EST / 2018.12.19 0300 UTC
Wind: from the SSW (200 degrees) at 7 MPH (6 KT) (direction variable):0
Visibility: greater than 7 mile(s):0
Temperature: 50 F (10 C)
Dew Point: 44 F (7 C)
Relative Humidity: 81%
Pressure (altimeter): 30.00 in. Hg (1016 hPa)
ob: LECO 190300Z AUTO 20006KT 160V230 CAVOK 10/07 Q1016
cycle: 3

Station Type Date Time Source
LECO TAF 2018/12/19 03:30 UTC NOAA

TAF LECO 190200Z 1903/2003 20009KT 9999 SCT030 TX13/1915Z TN08/1906Z PROB40
TEMPO 1903/1915 24015G25KT
TEMPO 1903/1915 SHRA SCT020TCU PROB40
TEMPO 1903/1909 3000 SHRA TS SCT020TCU SCT030CB PROB40
TEMPO 1921/2003 3000 -RA BKN014


Example: see airport list